sensor_id;sensor_type;location;lat;lon;timestamp;temperature;humidity
37342;DHT22;58643;49.052;8.518;2024-02-21T08:01:05;7.50;99.90
37342;DHT22;58643;49.052;8.518;2024-02-21T08:03:30;7.40;99.90
37342;DHT22;58643;49.052;8.518;2024-02-21T08:05:56;7.70;99.90
37342;DHT22;58643;49.052;8.518;2024-02-21T08:08:21;9.50;99.90
37342;DHT22;58643;49.052;8.518;2024-02-21T08:10:48;10.10;99.90
37342;DHT22;58643;49.052;8.518;2024-02-21T08:13:14;7.80;99.90
37342;DHT22;58643;49.052;8.518;2024-02-21T08:15:40;7.90;99.90
37342;DHT22;58643;49.052;8.518;2024-02-21T08:18:07;7.10;99.90
37342;DHT22;58643;49.052;8.518;2024-02-21T08:20:33;8.30;99.90
37342;DHT22;58643;49.052;8.518;2024-02-21T08:22:58;8.10;99.90
37342;DHT22;58643;49.052;8.518;2024-02-21T08:25:24;8.20;99.90
37342;DHT22;58643;49.052;8.518;2024-02-21T08:27:49;8.40;99.90
37342;DHT22;58643;49.052;8.518;2024-02-21T08:30:17;8.20;99.90
37342;DHT22;58643;49.052;8.518;2024-02-21T08:32:42;8.30;99.90
37342;DHT22;58643;49.052;8.518;2024-02-21T08:35:08;8.30;99.90
37342;DHT22;58643;49.052;8.518;2024-02-21T08:37:34;8.40;99.90
37342;DHT22;58643;49.052;8.518;2024-02-21T08:39:59;9.20;99.90
37342;DHT22;58643;49.052;8.518;2024-02-21T08:42:33;8.40;99.90
37342;DHT22;58643;49.052;8.518;2024-02-21T08:44:59;8.40;99.90
37342;DHT22;58643;49.052;8.518;2024-02-21T08:47:24;10.70;99.90
37342;DHT22;58643;49.052;8.518;2024-02-21T08:49:50;8.80;99.90
37342;DHT22;58643;49.052;8.518;2024-02-21T08:52:15;8.90;99.90
37342;DHT22;58643;49.052;8.518;2024-02-21T08:54:41;9.90;99.90
37342;DHT22;58643;49.052;8.518;2024-02-21T08:57:07;9.70;99.90
37342;DHT22;58643;49.052;8.518;2024-02-21T08:59:32;9.00;99.90
37342;DHT22;58643;49.052;8.518;2024-02-21T09:01:58;9.10;99.90
37342;DHT22;58643;49.052;8.518;2024-02-21T09:04:24;9.20;99.90
37342;DHT22;58643;49.052;8.518;2024-02-21T09:06:49;9.50;99.90
37342;DHT22;58643;49.052;8.518;2024-02-21T09:09:15;11.40;99.90
37342;DHT22;58643;49.052;8.518;2024-02-21T09:11:41;12.50;99.90
37342;DHT22;58643;49.052;8.518;2024-02-21T09:14:06;10.30;99.90
37342;DHT22;58643;49.052;8.518;2024-02-21T09:16:32;12.50;99.90
37342;DHT22;58643;49.052;8.518;2024-02-21T09:18:58;10.60;99.90
37342;DHT22;58643;49.052;8.518;2024-02-21T09:21:24;11.10;99.90
37342;DHT22;58643;49.052;8.518;2024-02-21T09:23:50;11.30;99.90
37342;DHT22;58643;49.052;8.518;2024-02-21T09:26:15;13.50;99.90
37342;DHT22;58643;49.052;8.518;2024-02-21T09:28:42;12.80;99.90
37342;DHT22;58643;49.052;8.518;2024-02-21T09:31:07;12.70;99.90
37342;DHT22;58643;49.052;8.518;2024-02-21T09:33:33;14.90;99.90
37342;DHT22;58643;49.052;8.518;2024-02-21T09:35:59;13.40;99.90
37342;DHT22;58643;49.052;8.518;2024-02-21T09:38:24;13.70;99.90
37342;DHT22;58643;49.052;8.518;2024-02-21T09:41:00;13.00;99.90
37342;DHT22;58643;49.052;8.518;2024-02-21T09:43:29;15.60;99.90
37342;DHT22;58643;49.052;8.518;2024-02-21T09:45:55;14.20;99.90
37342;DHT22;58643;49.052;8.518;2024-02-21T09:51:28;12.20;99.90
37342;DHT22;58643;49.052;8.518;2024-02-21T09:53:56;13.10;99.90
37342;DHT22;58643;49.052;8.518;2024-02-21T09:56:22;11.60;99.90
37342;DHT22;58643;49.052;8.518;2024-02-21T09:58:48;12.10;99.90
37342;DHT22;58643;49.052;8.518;2024-02-21T10:01:14;12.00;99.90
37342;DHT22;58643;49.052;8.518;2024-02-21T10:03:39;11.90;99.90
37342;DHT22;58643;49.052;8.518;2024-02-21T10:06:05;12.40;99.90
37342;DHT22;58643;49.052;8.518;2024-02-21T10:08:31;12.30;99.90
37342;DHT22;58643;49.052;8.518;2024-02-21T10:10:56;11.20;99.90
37342;DHT22;58643;49.052;8.518;2024-02-21T10:13:26;12.40;99.90
37342;DHT22;58643;49.052;8.518;2024-02-21T10:16:06;11.40;99.90
37342;DHT22;58643;49.052;8.518;2024-02-21T10:18:35;11.30;99.90
37342;DHT22;58643;49.052;8.518;2024-02-21T10:21:05;11.10;99.90
37342;DHT22;58643;49.052;8.518;2024-02-21T10:23:45;12.40;99.90
37342;DHT22;58643;49.052;8.518;2024-02-21T10:26:11;11.50;99.90
37342;DHT22;58643;49.052;8.518;2024-02-21T10:28:37;12.60;99.90
37342;DHT22;58643;49.052;8.518;2024-02-21T10:31:20;11.50;99.90
37342;DHT22;58643;49.052;8.518;2024-02-21T10:33:54;11.60;99.90
37342;DHT22;58643;49.052;8.518;2024-02-21T10:36:20;13.80;99.90
37342;DHT22;58643;49.052;8.518;2024-02-21T10:38:45;11.40;99.90
37342;DHT22;58643;49.052;8.518;2024-02-21T10:41:14;11.20;99.90
37342;DHT22;58643;49.052;8.518;2024-02-21T10:43:41;11.30;99.90
37342;DHT22;58643;49.052;8.518;2024-02-21T10:46:08;12.60;99.90
37342;DHT22;58643;49.052;8.518;2024-02-21T10:48:44;11.70;99.90
37342;DHT22;58643;49.052;8.518;2024-02-21T10:51:20;11.60;99.90
37342;DHT22;58643;49.052;8.518;2024-02-21T10:54:10;11.80;99.90
37342;DHT22;58643;49.052;8.518;2024-02-21T10:56:39;12.30;99.90
37342;DHT22;58643;49.052;8.518;2024-02-21T10:59:07;11.90;99.90
37342;DHT22;58643;49.052;8.518;2024-02-21T11:01:33;11.80;99.90
37342;DHT22;58643;49.052;8.518;2024-02-21T11:04:05;11.70;99.90
37342;DHT22;58643;49.052;8.518;2024-02-21T11:06:32;11.70;99.90
37342;DHT22;58643;49.052;8.518;2024-02-21T11:09:06;11.80;99.90
37342;DHT22;58643;49.052;8.518;2024-02-21T11:11:39;11.90;99.90
37342;DHT22;58643;49.052;8.518;2024-02-21T11:14:18;11.80;99.90
37342;DHT22;58643;49.052;8.518;2024-02-21T11:16:44;11.90;99.90
37342;DHT22;58643;49.052;8.518;2024-02-21T11:19:19;11.90;99.90
37342;DHT22;58643;49.052;8.518;2024-02-21T11:21:44;12.10;99.90
37342;DHT22;58643;49.052;8.518;2024-02-21T11:24:10;13.70;99.90
37342;DHT22;58643;49.052;8.518;2024-02-21T11:26:37;12.40;99.90
37342;DHT22;58643;49.052;8.518;2024-02-21T11:29:03;12.60;99.90
37342;DHT22;58643;49.052;8.518;2024-02-21T11:31:44;12.50;99.90
37342;DHT22;58643;49.052;8.518;2024-02-21T11:34:11;13.60;99.90
37342;DHT22;58643;49.052;8.518;2024-02-21T11:36:51;14.50;99.90
37342;DHT22;58643;49.052;8.518;2024-02-21T11:39:24;13.00;99.90
37342;DHT22;58643;49.052;8.518;2024-02-21T11:42:03;12.70;99.90
37342;DHT22;58643;49.052;8.518;2024-02-21T11:44:29;12.70;99.90
37342;DHT22;58643;49.052;8.518;2024-02-21T11:46:55;11.40;99.90
37342;DHT22;58643;49.052;8.518;2024-02-21T11:49:21;12.90;99.90
37342;DHT22;58643;49.052;8.518;2024-02-21T11:51:47;12.80;99.90
37342;DHT22;58643;49.052;8.518;2024-02-21T11:54:13;13.10;99.90
37342;DHT22;58643;49.052;8.518;2024-02-21T11:56:41;12.70;99.90
37342;DHT22;58643;49.052;8.518;2024-02-21T11:59:08;15.30;99.90
37342;DHT22;58643;49.052;8.518;2024-02-21T12:01:34;12.80;99.90
37342;DHT22;58643;49.052;8.518;2024-02-21T12:03:59;12.40;99.90
37342;DHT22;58643;49.052;8.518;2024-02-21T12:06:25;12.30;99.90
37342;DHT22;58643;49.052;8.518;2024-02-21T12:08:51;13.80;99.90
37342;DHT22;58643;49.052;8.518;2024-02-21T12:11:20;12.20;99.90
37342;DHT22;58643;49.052;8.518;2024-02-21T12:13:47;12.50;99.90
37342;DHT22;58643;49.052;8.518;2024-02-21T12:16:15;14.00;99.90
37342;DHT22;58643;49.052;8.518;2024-02-21T12:18:43;14.60;99.90
37342;DHT22;58643;49.052;8.518;2024-02-21T12:21:09;12.80;99.90
37342;DHT22;58643;49.052;8.518;2024-02-21T12:23:38;12.80;99.90
37342;DHT22;58643;49.052;8.518;2024-02-21T12:26:05;12.60;99.90
37342;DHT22;58643;49.052;8.518;2024-02-21T12:28:30;12.50;99.90
37342;DHT22;58643;49.052;8.518;2024-02-21T12:30:56;14.90;99.90
37342;DHT22;58643;49.052;8.518;2024-02-21T12:33:21;13.00;99.90
37342;DHT22;58643;49.052;8.518;2024-02-21T12:35:47;15.30;99.90
37342;DHT22;58643;49.052;8.518;2024-02-21T12:38:14;12.70;99.90
37342;DHT22;58643;49.052;8.518;2024-02-21T12:40:40;14.90;99.90
37342;DHT22;58643;49.052;8.518;2024-02-21T12:43:05;12.80;99.90
37342;DHT22;58643;49.052;8.518;2024-02-21T12:45:31;12.80;99.90
37342;DHT22;58643;49.052;8.518;2024-02-21T12:47:57;12.60;99.90
37342;DHT22;58643;49.052;8.518;2024-02-21T12:50:23;12.70;99.90
37342;DHT22;58643;49.052;8.518;2024-02-21T12:52:49;14.00;99.90
37342;DHT22;58643;49.052;8.518;2024-02-21T12:55:15;12.60;99.90
37342;DHT22;58643;49.052;8.518;2024-02-21T12:57:42;12.80;99.90
37342;DHT22;58643;49.052;8.518;2024-02-21T13:00:08;14.80;99.90
37342;DHT22;58643;49.052;8.518;2024-02-21T13:02:34;12.70;99.90
37342;DHT22;58643;49.052;8.518;2024-02-21T13:05:00;12.40;99.90
37342;DHT22;58643;49.052;8.518;2024-02-21T13:07:28;13.40;99.90
37342;DHT22;58643;49.052;8.518;2024-02-21T13:09:54;12.40;99.90
37342;DHT22;58643;49.052;8.518;2024-02-21T13:12:19;12.60;99.90
37342;DHT22;58643;49.052;8.518;2024-02-21T13:14:45;12.40;99.90
37342;DHT22;58643;49.052;8.518;2024-02-21T13:17:11;12.50;99.90
37342;DHT22;58643;49.052;8.518;2024-02-21T13:19:36;12.80;99.90
37342;DHT22;58643;49.052;8.518;2024-02-21T13:22:02;12.40;99.90
37342;DHT22;58643;49.052;8.518;2024-02-21T13:24:28;12.50;99.90
37342;DHT22;58643;49.052;8.518;2024-02-21T13:26:53;12.50;99.90
37342;DHT22;58643;49.052;8.518;2024-02-21T13:29:19;13.50;99.90
37342;DHT22;58643;49.052;8.518;2024-02-21T13:31:45;14.70;99.90
37342;DHT22;58643;49.052;8.518;2024-02-21T13:34:11;12.70;99.90
37342;DHT22;58643;49.052;8.518;2024-02-21T13:36:37;12.70;99.90
37342;DHT22;58643;49.052;8.518;2024-02-21T13:39:02;12.10;99.90
37342;DHT22;58643;49.052;8.518;2024-02-21T13:41:30;13.20;99.90
37342;DHT22;58643;49.052;8.518;2024-02-21T13:43:56;12.00;99.90
37342;DHT22;58643;49.052;8.518;2024-02-21T13:46:22;12.10;99.90
37342;DHT22;58643;49.052;8.518;2024-02-21T13:48:47;12.00;99.90
37342;DHT22;58643;49.052;8.518;2024-02-21T13:51:13;12.10;99.90
37342;DHT22;58643;49.052;8.518;2024-02-21T13:53:38;13.40;99.90
37342;DHT22;58643;49.052;8.518;2024-02-21T13:56:04;12.40;99.90
37342;DHT22;58643;49.052;8.518;2024-02-21T13:58:30;12.20;99.90
